Latest Weather Observations for Holmes Reef

IDQ60801

Issued at 6:35 pm EST Wednesday 27 August 2014 (issued every 30 minutes, with the page automatically refreshed every 10 minutes)

About weather observations | Map of weather stations | Latest weather observations for QLD | Other Formats
Station Details ID: 200732 Name: HOLMES REEF Lat: -16.47 Lon: 147.87 Height: 1.9 m
Data from the previous 72 hours. | See also: Recent months at Holmes Reef
Date/Time
EST
Temp
°C
App
Temp
°C
Dew
Point
Rel
Hum
%
Delta-T
°C
Wind Press
QNH
hPa
Press
MSL
hPa
Rain
since 9 am
mm
Dir
 
Spd
km/h
Gust
km/h
Spd
kts
Gust
kts
27/06:30pm 23.0 - - - - SE 26 32 14 17 1015.2 - -
27/06:15pm 22.9 - - - - SE 26 28 14 15 1015.1 1014.8 -
27/06:00pm 22.9 - - - - SE 24 32 13 17 1014.7 - -
27/05:30pm 23.0 - - - - SSE 28 33 15 18 1014.5 - -
27/05:00pm 23.2 - - - - SE 26 32 14 17 1014.2 - -
27/04:30pm 23.1 - - - - SE 28 32 15 17 1014.1 - -
27/04:15pm 23.1 - - - - SE 28 - 15 - - 1013.7 -
27/04:00pm 23.1 - - - - SE 26 33 14 18 1013.8 - -
27/03:30pm 23.2 - - - - SE 26 32 14 17 1013.7 - -
27/03:15pm 23.2 - - - - SE 26 - 14 - - 1013.4 -
27/03:00pm 23.4 - - - - SSE 26 32 14 17 1013.9 - -
27/02:30pm 23.7 - - - - SSE 26 32 14 17 1014.1 - -
27/02:15pm 23.5 - - - - SSE 28 - 15 - - 1013.9 -
27/02:00pm 23.3 - - - - SE 26 32 14 17 1014.5 - -
27/01:30pm 23.4 - - - - SSE 28 32 15 17 1014.9 - -
27/01:15pm 23.2 - - - - SSE 28 - 15 - - 1014.7 -
27/01:00pm 23.3 - - - - SE 28 32 15 17 1015.1 - -
27/12:30pm 23.3 - - - - SE 28 39 15 21 1015.3 - -
27/12:15pm 23.4 - - - - SE 28 - 15 - - 1015.3 -
27/12:00pm 23.4 - - - - SE 28 35 15 19 1015.9 - -
27/11:30am 23.3 - - - - SE 28 33 15 18 1016.1 - -
27/11:15am 23.4 - - - - SE 26 - 14 - - 1016.1 -
27/11:00am 23.3 - - - - SE 28 33 15 18 1016.6 - -
27/10:30am 23.4 - - - - SE 28 32 15 17 1016.9 - -
27/10:15am 23.3 - - - - SE 28 - 15 - - 1016.7 -
27/10:00am 23.2 - - - - SE 28 33 15 18 1017.0 - -
27/09:30am 23.2 - - - - SE 28 33 15 18 1017.0 - -
27/09:15am 23.3 - - - - SE 26 - 14 - - 1016.6 -
27/09:00am 23.2 - - - - SE 28 32 15 17 1016.8 - -
27/08:30am 23.2 - - - - ESE 28 35 15 19 1016.5 - -
27/08:15am 23.1 - - - - SE 30 - 16 - - 1016.2 -
27/08:00am 23.1 - - - - SE 30 37 16 20 1016.3 - -
27/07:30am 22.9 - - - - SE 30 35 16 19 1016.0 - -
27/07:15am 22.9 - - - - SE 30 - 16 - - 1015.5 -
27/07:00am 22.8 - - - - SE 28 35 15 19 1015.7 - -
27/06:30am 22.8 - - - - SE 30 35 16 19 1015.4 - -
27/06:15am 22.6 - - - - SE 28 - 15 - - 1015.0 -
27/06:00am 22.7 - - - - SE 28 35 15 19 1015.1 - -
27/05:30am 22.6 - - - - SE 28 33 15 18 1014.8 - -
27/05:15am 22.7 - - - - SE 28 - 15 - - 1014.3 -
27/05:00am 22.8 - - - - SE 28 33 15 18 1014.6 - -
27/04:30am 22.9 - - - - SE 26 32 14 17 1014.6 - -
27/04:15am 22.8 - - - - SE 28 - 15 - - 1014.2 -
27/04:00am 22.7 - - - - SE 26 32 14 17 1014.6 - -
27/03:30am 22.9 - - - - SE 24 32 13 17 1014.6 - -
27/03:15am 22.9 - - - - SE 26 - 14 - - 1014.2 -
27/03:00am 22.8 - - - - ESE 26 32 14 17 1014.6 - -
27/02:30am 22.9 - - - - ESE 26 32 14 17 1014.7 - -
27/02:15am 23.0 - - - - ESE 26 - 14 - - 1014.5 -
27/02:00am 23.0 - - - - ESE 26 33 14 18 1014.9 - -
27/01:30am 22.9 - - - - ESE 28 33 15 18 1015.2 - -
27/01:15am 23.0 - - - - ESE 30 - 16 - - 1015.0 -
27/01:00am 23.0 - - - - E 28 33 15 18 1015.4 - -
27/12:30am 23.0 - - - - ESE 28 35 15 19 1015.6 - -
27/12:15am 23.1 - - - - SE 28 - 15 - - 1015.5 -
27/12:00am 23.1 - - - - SE 32 37 17 20 1016.0 - -
 
Date/Time
EST
Temp
°C
App
Temp
°C
Dew
Point
Rel
Hum
%
Delta-T
°C
Wind Press
QNH
hPa
Press
MSL
hPa
Rain
since 9 am
mm
Dir
 
Spd
km/h
Gust
km/h
Spd
kts
Gust
kts
26/11:30pm 23.1 - - - - SE 33 37 18 20 1016.0 - -
26/11:15pm 23.1 - - - - SE 33 - 18 - - 1015.7 -
26/11:00pm 23.0 - - - - SE 33 37 18 20 1016.0 - -
26/10:30pm 23.2 - - - - SE 33 37 18 20 1016.1 - -
26/10:15pm 23.2 - - - - SE 33 - 18 - - 1015.9 -
26/10:00pm 23.4 - - - - SE 33 41 18 22 1016.2 - -
26/09:30pm 23.2 - - - - SE 35 43 19 23 1016.1 - -
26/09:15pm 23.3 - - - - SE 33 - 18 - - 1015.7 -
26/09:00pm 23.3 - - - - SE 35 41 19 22 1016.0 - -
26/08:30pm 23.4 - - - - SE 35 43 19 23 1015.8 - -
26/08:15pm 23.2 - - - - SE 37 - 20 - - 1015.3 -
26/08:00pm 23.2 - - - - SE 35 39 19 21 1015.5 - -
26/07:30pm 23.4 - - - - SE 37 43 20 23 1015.3 - -
26/07:15pm 23.2 - - - - SE 37 - 20 - - 1014.8 -
26/07:00pm 23.5 - - - - SE 35 43 19 23 1015.1 - -
26/06:30pm 23.4 - - - - SE 37 43 20 23 1014.7 - -
26/06:15pm 23.4 - - - - SE 35 - 19 - - 1014.4 -
26/06:00pm 23.4 - - - - SSE 37 44 20 24 1014.5 - -
26/05:30pm 23.4 - - - - SE 35 43 19 23 1014.3 - -
26/05:15pm 23.6 - - - - SE 35 - 19 - - 1013.8 -
26/05:00pm 23.3 - - - - SE 35 43 19 23 1014.0 - -
26/04:30pm 23.4 - - - - SE 35 44 19 24 1013.9 - -
26/04:15pm 23.6 - - - - SE 33 - 18 - - 1013.5 -
26/04:00pm 23.5 - - - - SE 35 43 19 23 1013.8 - -
26/03:30pm 23.5 - - - - SE 35 43 19 23 1013.7 - -
26/03:15pm 23.5 - - - - SE 33 - 18 - - 1013.3 -
26/03:00pm 23.5 - - - - SE 35 41 19 22 1013.6 - -
26/02:30pm 23.4 - - - - SE 33 39 18 21 1014.1 - -
26/02:15pm 23.5 - - - - SE 35 - 19 - - 1013.8 -
26/02:00pm 23.5 - - - - SE 37 43 20 23 1014.2 - -
26/01:30pm 23.6 - - - - SE 35 41 19 22 1014.5 - -
26/01:15pm 23.7 - - - - SE 37 - 20 - - 1014.3 -
26/01:00pm 23.7 - - - - SE 37 43 20 23 1014.7 - -
26/12:30pm 23.6 - - - - SE 39 44 21 24 1014.7 - -
26/12:15pm 23.6 - - - - SE 39 - 21 - - 1014.5 -
26/12:00pm 23.8 - - - - SE 39 46 21 25 1015.1 - -
26/11:30am 23.6 - - - - SE 41 48 22 26 1015.5 - -
26/11:15am 23.6 - - - - SE 41 - 22 - - 1015.4 -
26/11:00am 23.5 - - - - SE 39 46 21 25 1015.8 - -
26/10:30am 23.6 - - - - SE 41 48 22 26 1016.2 - -
26/10:15am 23.6 - - - - SE 41 - 22 - - 1016.1 -
26/10:00am 23.7 - - - - SE 39 46 21 25 1016.5 - -
26/09:30am 23.6 - - - - SE 41 52 22 28 1016.6 - -
26/09:15am 23.7 - - - - SE 41 - 22 - - 1016.2 -
26/09:00am 23.7 - - - - SE 43 50 23 27 1016.3 - -
26/08:30am 23.7 - - - - SE 41 46 22 25 1016.2 - -
26/08:15am 23.8 - - - - SE 41 - 22 - - 1015.8 -
26/08:00am 23.9 - - - - SE 43 48 23 26 1015.9 - -
26/07:30am 23.8 - - - - SE 41 48 22 26 1015.7 - -
26/07:15am 23.7 - - - - SE 41 - 22 - - 1015.4 -
26/07:00am 23.8 - - - - SE 43 52 23 28 1015.5 - -
26/06:30am 23.8 - - - - SE 41 48 22 26 1015.1 - -
26/06:15am 23.7 - - - - SE 43 - 23 - - 1014.4 -
26/06:00am 23.6 - - - - SE 43 48 23 26 1014.6 - -
26/05:30am 23.7 - - - - SE 41 50 22 27 1014.4 - -
26/05:15am 23.7 - - - - SE 44 - 24 - - 1013.9 -
26/05:00am 23.7 - - - - SE 43 52 23 28 1014.1 - -
26/04:30am 23.6 - - - - SE 44 52 24 28 1013.9 - -
26/04:15am 23.6 - - - - SE 43 - 23 - - 1013.8 -
26/04:00am 23.5 - - - - SE 43 50 23 27 1014.0 - -
26/03:30am 23.3 - - - - SE 44 54 24 29 1014.1 - -
26/03:15am 23.4 - - - - SE 44 - 24 - - 1013.8 -
26/03:00am 23.4 - - - - ESE 44 52 24 28 1014.3 - -
26/02:30am 23.2 - - - - ESE 43 50 23 27 1014.5 - -
26/02:15am 23.2 - - - - SE 43 - 23 - - 1014.3 -
26/02:00am 23.1 - - - - SE 41 48 22 26 1014.7 - -
26/01:30am 22.9 - - - - SE 39 44 21 24 1015.1 - -
26/01:15am 22.7 - - - - SE 37 - 20 - - 1015.0 -
26/01:00am 22.7 - - - - SE 39 43 21 23 1015.5 - -
26/12:30am 22.8 - - - - SE 39 44 21 24 1016.0 - -
26/12:15am 22.8 - - - - SE 41 - 22 - - 1015.6 -
26/12:00am 22.8 - - - - SE 39 46 21 25 1016.1 - -
 
Date/Time
EST
Temp
°C
App
Temp
°C
Dew
Point
Rel
Hum
%
Delta-T
°C
Wind Press
QNH
hPa
Press
MSL
hPa
Rain
since 9 am
mm
Dir
 
Spd
km/h
Gust
km/h
Spd
kts
Gust
kts
25/11:30pm 22.8 - - - - SE 39 46 21 25 1016.0 - -
25/11:15pm 22.7 - - - - SE 39 - 21 - - 1015.8 -
25/11:00pm 23.0 - - - - SE 39 44 21 24 1016.3 - -
25/10:30pm 22.9 - - - - SE 37 41 20 22 1016.6 - -
25/10:15pm 23.0 - - - - SE 39 - 21 - - 1016.3 -
25/10:00pm 23.0 - - - - SE 39 46 21 25 1016.5 - -
25/09:30pm 22.9 - - - - SSE 39 44 21 24 1016.6 - -
25/09:15pm 23.0 - - - - SSE 41 - 22 - - 1016.2 -
25/09:00pm 23.1 - - - - SSE 41 46 22 25 1016.5 - -
25/08:30pm 23.0 - - - - SSE 41 46 22 25 1016.5 - -
25/08:15pm 23.2 - - - - SSE 43 - 23 - - 1016.2 -
25/08:00pm 23.4 - - - - SSE 41 46 22 25 1016.6 - -
25/07:30pm 23.3 - - - - SE 41 46 22 25 1016.3 - -
25/07:15pm 23.2 - - - - SE 41 - 22 - - 1016.0 -
25/07:00pm 23.2 - - - - SSE 43 48 23 26 1016.0 - -
25/06:30pm 23.1 - - - - SSE 41 46 22 25 1015.9 - -
25/06:15pm 23.0 - - - - SSE 43 - 23 - - 1015.3 -
25/05:30pm 23.2 - - - - SSE 41 50 22 27 1015.3 - -
25/05:15pm 22.9 - - - - SSE 41 - 22 - - 1014.9 -
25/05:00pm 23.1 - - - - SSE 43 50 23 27 1014.9 - -
25/04:30pm 23.1 - - - - SSE 44 50 24 27 1015.0 - -
25/04:15pm 22.9 - - - - SSE 46 - 25 - - 1014.6 -
25/04:00pm 22.7 - - - - SSE 43 50 23 27 1014.8 - -
25/03:30pm 22.8 - - - - SSE 35 41 19 22 1014.8 - -
25/03:15pm 22.3 - - - - SSE 46 - 25 - - 1014.3 -
25/03:00pm 23.1 - - - - SSE 43 48 23 26 1014.8 - -
25/02:30pm 23.2 - - - - SSE 43 50 23 27 1015.1 - -
25/02:15pm 22.9 - - - - SSE 39 - 21 - - 1014.9 -
25/02:00pm 23.2 - - - - SSE 43 50 23 27 1015.3 - -
25/01:30pm 22.9 - - - - SSE 43 46 23 25 1015.7 - -
25/01:15pm 23.2 - - - - SE 41 - 22 - - 1015.5 -
25/01:00pm 23.5 - - - - SE 41 46 22 25 1016.0 - -
25/12:30pm 23.4 - - - - SE 43 50 23 27 1016.2 - -
25/12:15pm 23.8 - - - - SE 39 - 21 - - 1016.2 -
25/12:00pm 23.5 - - - - SE 39 44 21 24 1016.5 - -
25/11:30am 23.6 - - - - SE 41 46 22 25 1016.9 - -
25/11:15am 23.4 - - - - SE 41 - 22 - - 1016.6 -
25/11:00am 23.4 - - - - SE 41 48 22 26 1017.1 - -
25/10:30am 23.7 - - - - SE 41 48 22 26 1017.6 - -
25/10:15am 23.5 - - - - SE 44 - 24 - - 1017.2 -
25/10:00am 23.4 - - - - SE 43 48 23 26 1017.8 - -
25/09:30am 23.3 - - - - SE 43 52 23 28 1017.8 - -
25/09:15am 23.5 - - - - SE 44 - 24 - - 1017.3 -
25/09:00am 23.6 - - - - SE 43 50 23 27 1017.7 - -
25/08:30am 23.4 - - - - SE 41 48 22 26 1017.5 - -
25/08:15am 23.6 - - - - SE 39 - 21 - - 1017.2 -
25/08:00am 23.6 - - - - SE 37 44 20 24 1017.5 - -
25/07:30am 23.2 - - - - SSE 37 41 20 22 1017.0 - -
25/07:15am 23.1 - - - - SE 37 - 20 - - 1016.6 -
25/07:00am 23.1 - - - - SE 37 44 20 24 1016.7 - -
25/06:30am 23.1 - - - - SE 35 41 19 22 1016.3 - -
25/06:15am 22.9 - - - - SSE 39 - 21 - - 1015.9 -
25/06:00am 23.1 - - - - SE 39 48 21 26 1016.1 - -
25/05:30am 22.8 - - - - SE 41 48 22 26 1015.6 - -
25/05:15am 22.9 - - - - SE 39 - 21 - - 1015.2 -
25/05:00am 22.7 - - - - SE 41 46 22 25 1015.3 - -
25/04:30am 22.5 - - - - SE 41 48 22 26 1015.2 - -
25/04:15am 22.8 - - - - SSE 39 - 21 - - 1015.0 -
25/03:30am 22.8 - - - - SE 43 50 23 27 1015.5 - -
25/03:15am 22.6 - - - - SE 39 - 21 - - 1015.3 -
25/03:00am 22.5 - - - - SE 41 46 22 25 1015.6 - -
25/02:30am 22.6 - - - - SE 41 50 22 27 1016.0 - -
25/02:15am 22.4 - - - - SE 44 - 24 - - 1015.9 -
25/02:00am 22.5 - - - - SE 43 52 23 28 1016.3 - -
25/01:30am 22.7 - - - - SE 41 46 22 25 1016.5 - -
25/01:15am 22.6 - - - - SE 43 - 23 - - 1016.3 -
25/01:00am 22.7 - - - - SE 41 48 22 26 1016.7 - -
25/12:30am 22.7 - - - - SE 41 48 22 26 1016.7 - -
25/12:15am 22.7 - - - - SE 41 - 22 - - 1016.4 -
25/12:00am 22.7 - - - - SE 39 46 21 25 1016.9 - -
 
Date/Time
EST
Temp
°C
App
Temp
°C
Dew
Point
Rel
Hum
%
Delta-T
°C
Wind Press
QNH
hPa
Press
MSL
hPa
Rain
since 9 am
mm
Dir
 
Spd
km/h
Gust
km/h
Spd
kts
Gust
kts
24/11:30pm 22.7 - - - - SE 41 48 22 26 1017.0 - -
24/11:15pm 22.7 - - - - SE 37 - 20 - - 1016.9 -
24/11:00pm 22.8 - - - - SE 39 44 21 24 1017.2 - -
24/10:30pm 22.7 - - - - SE 37 43 20 23 1017.3 - -
24/10:15pm 22.8 - - - - SE 37 - 20 - - 1016.9 -
24/10:00pm 22.8 - - - - SE 39 44 21 24 1017.5 - -
24/09:30pm 22.9 - - - - SE 39 44 21 24 1017.5 - -
24/09:15pm 22.9 - - - - SE 37 - 20 - - 1017.2 -
24/08:30pm 23.0 - - - - SSE 37 44 20 24 1017.5 - -
24/08:15pm 22.9 - - - - SSE 37 - 20 - - 1017.2 -
24/08:00pm 23.0 - - - - SSE 35 41 19 22 1017.4 - -
24/07:15pm 22.9 - - - - SSE 37 - 20 - - 1016.7 -
24/07:00pm 23.0 - - - - SSE 37 44 20 24 1016.9 - -

Other Formats:

Comma delimited format used in spreadsheet applications
http://www.bom.gov.au/fwo/IDQ60801/IDQ60801.94289.axf

JavaScript Object Notation format (JSON) in row-major order
http://www.bom.gov.au/fwo/IDQ60801/IDQ60801.94289.json